Airfield :
LOGIN :

Register | Disclaimer

   EN    FR    IT 

 










Legend :    VFR   Marginal VFR   IFR   Intensive IFR   Very Intensive IFR
Visi :
Ceiling :
>= 8 km
>= 3000ft
5 to 8 km
1000 to 3000 ft
1500m to 5 km
500 to 1000 ft
800 to 1500m
200 to 500 ft
< 800m
< 200 ft
Symbols :   Thunderstorms  Fog  Heavy snow  Heavy precipitations  Wind > 20 kt
SIGMETs :     Misc.  Thunderstorms  Icing  Turbulence  Mountain Waves  Volcanic Ashes







- Airport Elevation : 47 ft
- IATA code : CBG
- Download approach charts


EGSC - Cambridge

CURRENT METAR :
  • 261020Z 03011KT 9999 BKN010 16/13 Q1029

EXPIRED METARs :
  • 260950Z 03013KT 9999 BKN009 15/13 Q1028
  • 260920Z 030 12KT 9999 BKN008 15/13 Q1028
  • 260850Z 03013KT 9999 BKN008 15/13 Q1028
  • 260750Z 03011KT 9999 BKN008 15/13 Q1028
  • 260720Z 03009KT 9999 BKN008 15/13 Q1028

TAF TAF EGSC
Valid from the 26 at 09:00 until the 26 at 18:00 UTC


260918Z 2609/2618 04012KT 9999 BKN008
TEMPO 2609/2611 SCT012
BECMG 2611/2613 SCT022
No reported NOTAMs for that airfield.



MET'MAP, your aeronautical weather chart ! - Copyright ORBIFLY December 2007 - Disclaimer

ORBIFLY MET'MAP TEAM :

Programming & Development : Alexandra Zaïnal
Concept & Development : Baudouin d'Aumeries
Co-Development & Prog : Marc-Olivier Méhu
Technical & hardware support : Manuel Goepfert

Contact : metmap@orbifly.com




SOURCES & CREDITS :

   NOAA